Time;durP1;ratioP1;P1;durP2;ratioP2;P2;SDS_P1;SDS_P2;PMS_P1;PMS_P2;Temp;Humidity;BMP_temperature;BMP_pressure;BME280_temperature;BME280_humidity;BME280_pressure;Samples;Min_cycle;Max_cycle;Signal;HPM_P1;HPM_P2
2022/05/23 00:01:19;;;;;;;1999.90;999.90;;;13.10;99.90;;;;;;5059766;28;20051;-77
2022/05/23 00:03:45;;;;;;;1999.90;999.90;;;13.00;99.90;;;;;;5048626;28;20036;-77
2022/05/23 00:06:18;;;;;;;1999.90;999.90;;;12.90;99.90;;;;;;5049396;28;20033;-77
2022/05/23 00:08:44;;;;;;;1999.90;999.90;;;12.90;99.90;;;;;;5049599;28;20086;-77
2022/05/23 00:11:10;;;;;;;1999.90;999.90;;;12.80;99.90;;;;;;5049624;28;20413;-77
2022/05/23 00:13:35;;;;;;;1999.90;999.90;;;12.80;99.90;;;;;;5063217;28;20450;-77
2022/05/23 00:16:03;;;;;;;1999.90;999.90;;;12.70;99.90;;;;;;5070771;28;20164;-76
2022/05/23 00:18:29;;;;;;;1999.90;999.90;;;12.70;99.90;;;;;;5058713;28;20181;-77
2022/05/23 00:20:55;;;;;;;1999.90;999.90;;;12.70;99.90;;;;;;5047823;28;20545;-77
2022/05/23 00:23:22;;;;;;;1999.90;999.90;;;12.60;99.90;;;;;;5072855;28;20080;-77
2022/05/23 00:25:48;;;;;;;1999.90;999.90;;;12.60;99.90;;;;;;5046982;28;20037;-77
2022/05/23 00:28:14;;;;;;;1999.90;999.90;;;12.50;99.90;;;;;;5053402;28;20060;-77
2022/05/23 00:30:40;;;;;;;1999.90;999.90;;;12.50;99.90;;;;;;5069432;28;20154;-77
2022/05/23 00:35:52;;;;;;;1999.90;999.90;;;12.40;99.90;;;;;;5057048;28;20052;-77
2022/05/23 00:38:19;;;;;;;1999.90;999.90;;;12.40;99.90;;;;;;5053013;28;20457;-77
2022/05/23 00:44:01;;;;;;;1999.90;999.90;;;12.30;99.90;;;;;;5023456;28;20108;-77
2022/05/23 00:46:26;;;;;;;1999.90;999.90;;;12.30;99.90;;;;;;5077946;28;20081;-77
2022/05/23 00:48:52;;;;;;;1999.90;999.90;;;12.30;99.90;;;;;;5054382;28;20448;-76
2022/05/23 00:51:18;;;;;;;1999.90;999.90;;;12.30;99.90;;;;;;5059082;28;20154;-77
2022/05/23 00:53:55;;;;;;;1999.90;999.90;;;12.30;99.90;;;;;;5052757;28;20516;-77
2022/05/23 00:56:26;;;;;;;1999.90;999.90;;;12.30;99.90;;;;;;5041387;28;20383;-77
2022/05/23 00:58:55;;;;;;;1999.90;999.90;;;12.20;99.90;;;;;;5065599;28;20041;-77
2022/05/23 01:01:27;;;;;;;1999.90;999.90;;;12.20;99.90;;;;;;5048328;28;20043;-76
2022/05/23 01:03:53;;;;;;;1999.90;999.90;;;12.20;99.90;;;;;;5069194;28;20036;-76
2022/05/23 01:06:18;;;;;;;1999.90;999.90;;;12.10;99.90;;;;;;5059926;28;20450;-76
2022/05/23 01:08:45;;;;;;;1999.90;999.90;;;12.10;99.90;;;;;;5070410;28;20119;-76
2022/05/23 01:11:12;;;;;;;1999.90;999.90;;;12.00;99.90;;;;;;5039810;28;20037;-77
2022/05/23 01:13:38;;;;;;;1999.90;999.90;;;12.00;99.90;;;;;;5052010;28;20041;-77
2022/05/23 01:16:04;;;;;;;1999.90;999.90;;;12.00;99.90;;;;;;5069470;28;20047;-76
2022/05/23 01:18:31;;;;;;;1999.90;999.90;;;11.90;99.90;;;;;;5045597;28;20051;-77
2022/05/23 01:21:01;;;;;;;1999.90;999.90;;;11.80;99.90;;;;;;5050973;28;20041;-76
2022/05/23 01:23:48;;;;;;;1999.90;999.90;;;11.80;99.90;;;;;;5052085;28;20053;-76
2022/05/23 01:26:14;;;;;;;1999.90;999.90;;;11.80;99.90;;;;;;5045331;28;20130;-76
2022/05/23 01:28:41;;;;;;;1999.90;999.90;;;11.70;99.90;;;;;;5066955;28;20040;-76
2022/05/23 01:31:09;;;;;;;1999.90;999.90;;;11.70;99.90;;;;;;5071430;28;20079;-77
2022/05/23 01:33:35;;;;;;;1999.90;999.90;;;11.60;99.90;;;;;;5069279;28;20512;-76
2022/05/23 01:36:01;;;;;;;1999.90;999.90;;;11.60;99.90;;;;;;5051347;28;20115;-76
2022/05/23 01:38:27;;;;;;;1999.90;999.90;;;11.60;99.90;;;;;;5052013;28;20127;-76
2022/05/23 01:40:57;;;;;;;1999.90;999.90;;;11.60;99.90;;;;;;5066904;28;20044;-76
2022/05/23 01:43:24;;;;;;;1999.90;999.90;;;11.70;99.90;;;;;;5067897;28;20047;-77
2022/05/23 01:45:50;;;;;;;1999.90;999.90;;;11.70;99.90;;;;;;5075017;28;20036;-76
2022/05/23 01:48:16;;;;;;;1999.90;999.90;;;11.70;99.90;;;;;;5033592;28;20087;-76
2022/05/23 01:50:42;;;;;;;1999.90;999.90;;;11.80;99.90;;;;;;5048355;28;20044;-76
2022/05/23 01:53:07;;;;;;;1999.90;999.90;;;11.80;99.90;;;;;;5061232;28;20036;-76
2022/05/23 01:55:35;;;;;;;1999.90;999.90;;;11.90;99.90;;;;;;5059469;28;20130;-76
2022/05/23 01:58:00;;;;;;;1999.90;999.90;;;11.90;99.90;;;;;;5064651;28;20059;-76
2022/05/23 02:03:10;;;;;;;1999.90;999.90;;;12.00;99.90;;;;;;5067391;28;20371;-76
2022/05/23 02:05:35;;;;;;;1999.90;999.90;;;12.10;99.90;;;;;;5031722;28;20060;-76
2022/05/23 02:08:01;;;;;;;1999.90;999.90;;;12.10;99.90;;;;;;5068447;28;20490;-76
2022/05/23 02:10:29;;;;;;;1999.90;999.90;;;12.20;99.90;;;;;;5056851;28;20049;-77
2022/05/23 02:12:56;;;;;;;1999.90;999.90;;;12.20;99.90;;;;;;5041532;28;20047;-77
2022/05/23 02:15:21;;;;;;;1999.90;999.90;;;12.20;99.90;;;;;;5041352;28;20040;-78
2022/05/23 02:17:47;;;;;;;1999.90;999.90;;;12.30;99.90;;;;;;5054354;28;20369;-77
2022/05/23 02:20:14;;;;;;;1999.90;999.90;;;12.30;99.90;;;;;;5058117;28;20040;-76
2022/05/23 02:22:40;;;;;;;1999.90;999.90;;;12.30;99.90;;;;;;5060764;28;20052;-76
2022/05/23 02:25:06;;;;;;;1999.90;999.90;;;12.40;99.90;;;;;;5066906;28;20041;-76
2022/05/23 02:27:32;;;;;;;1999.90;999.90;;;12.30;99.90;;;;;;5070069;28;20044;-76
2022/05/23 02:29:58;;;;;;;1999.90;999.90;;;12.30;99.90;;;;;;5070786;28;20046;-77
2022/05/23 02:32:24;;;;;;;1999.90;999.90;;;12.40;99.90;;;;;;5069358;28;20039;-77
2022/05/23 02:34:50;;;;;;;1999.90;999.90;;;12.40;99.90;;;;;;5054269;28;20523;-77
2022/05/23 02:37:16;;;;;;;1999.90;999.90;;;12.40;99.90;;;;;;5084946;28;20375;-77
2022/05/23 02:39:42;;;;;;;1999.90;999.90;;;12.40;99.90;;;;;;5050857;28;20098;-76
2022/05/23 02:42:08;;;;;;;1999.90;999.90;;;12.40;99.90;;;;;;5077727;28;20102;-77
2022/05/23 02:44:35;;;;;;;1999.90;999.90;;;12.30;99.90;;;;;;5034219;28;20497;-76
2022/05/23 02:47:00;;;;;;;1999.90;999.90;;;12.30;99.90;;;;;;5062775;28;20460;-77
2022/05/23 02:49:26;;;;;;;1999.90;999.90;;;12.30;99.90;;;;;;5070769;28;20042;-77
2022/05/23 02:51:53;;;;;;;1999.90;999.90;;;12.30;99.90;;;;;;5056599;28;20036;-77
2022/05/23 02:54:19;;;;;;;1999.90;999.90;;;12.20;99.90;;;;;;5070205;28;20052;-76
2022/05/23 02:56:44;;;;;;;1999.90;999.90;;;12.30;99.90;;;;;;5064152;28;20416;-77
2022/05/23 02:59:10;;;;;;;1999.90;999.90;;;12.20;99.90;;;;;;5070859;28;20054;-76
2022/05/23 03:03:01;;;;;;;1999.90;999.90;;;12.20;99.90;;;;;;5039046;28;20036;-78
2022/05/23 03:04:21;;;;;;;1999.90;999.90;;;12.10;99.90;;;;;;5070107;28;20047;-77
2022/05/23 03:06:46;;;;;;;1999.90;999.90;;;12.10;99.90;;;;;;5073240;28;20043;-77
2022/05/23 03:09:12;;;;;;;1999.90;999.90;;;12.00;99.90;;;;;;5065468;28;20050;-78
2022/05/23 03:11:38;;;;;;;1999.90;999.90;;;12.00;99.90;;;;;;5049110;28;20090;-77
2022/05/23 03:14:03;;;;;;;1999.90;999.90;;;12.00;99.90;;;;;;5066543;28;20052;-77
2022/05/23 03:16:29;;;;;;;1999.90;999.90;;;11.90;99.90;;;;;;5064121;28;20040;-76
2022/05/23 03:18:54;;;;;;;1999.90;999.90;;;11.90;99.90;;;;;;5072940;28;20047;-76
2022/05/23 03:27:00;;;;;;;1999.90;999.90;;;11.70;99.90;;;;;;5056849;28;20052;-77
2022/05/23 03:29:31;;;;;;;1999.90;999.90;;;11.70;99.90;;;;;;5053025;28;20036;-77
2022/05/23 03:31:56;;;;;;;1999.90;999.90;;;11.60;99.90;;;;;;5070270;28;20067;-77
2022/05/23 03:34:23;;;;;;;1999.90;999.90;;;11.60;99.90;;;;;;5069216;28;20043;-77
2022/05/23 03:36:48;;;;;;;1999.90;999.90;;;11.60;99.90;;;;;;5057828;28;20427;-76
2022/05/23 03:39:15;;;;;;;1999.90;999.90;;;11.60;99.90;;;;;;5070570;28;20048;-77
2022/05/23 03:41:41;;;;;;;1999.90;999.90;;;11.60;99.90;;;;;;5060939;28;20032;-78
2022/05/23 03:44:09;;;;;;;1999.90;999.90;;;11.60;99.90;;;;;;5069521;28;20467;-77
2022/05/23 03:46:36;;;;;;;1999.90;999.90;;;11.60;99.90;;;;;;5047846;28;20154;-77
2022/05/23 03:49:03;;;;;;;1999.90;999.90;;;11.70;99.90;;;;;;5070023;28;20078;-76
2022/05/23 03:51:29;;;;;;;1999.90;999.90;;;11.70;99.90;;;;;;5055099;28;20556;-76
2022/05/23 03:53:55;;;;;;;1999.90;999.90;;;11.70;99.90;;;;;;5070363;28;20036;-77
2022/05/23 03:56:21;;;;;;;1999.90;999.90;;;11.80;99.90;;;;;;5062534;28;20461;-76
2022/05/23 03:58:47;;;;;;;1999.90;999.90;;;11.80;99.90;;;;;;5073913;28;20087;-76
2022/05/23 04:01:18;;;;;;;1999.90;999.90;;;11.80;99.90;;;;;;5086489;28;20050;-76
2022/05/23 04:03:44;;;;;;;1999.90;999.90;;;11.90;99.90;;;;;;5050377;28;20036;-76
2022/05/23 04:06:09;;;;;;;1999.90;999.90;;;11.90;99.90;;;;;;5056995;28;20036;-76
2022/05/23 04:08:35;;;;;;;1999.90;999.90;;;11.90;99.90;;;;;;5058209;28;20040;-76
2022/05/23 04:11:02;;;;;;;1999.90;999.90;;;11.90;99.90;;;;;;5056267;28;20048;-76
2022/05/23 04:13:28;;;;;;;1999.90;999.90;;;11.90;99.90;;;;;;5073194;28;20039;-76
2022/05/23 04:15:54;;;;;;;1999.90;999.90;;;11.90;99.90;;;;;;5074753;28;20117;-76
2022/05/23 04:18:20;;;;;;;1999.90;999.90;;;11.90;99.90;;;;;;5067953;28;20451;-77
2022/05/23 04:20:46;;;;;;;1999.90;999.90;;;11.90;99.90;;;;;;5055355;28;20036;-76
2022/05/23 04:23:12;;;;;;;1999.90;999.90;;;11.80;99.90;;;;;;5072541;28;20123;-76
2022/05/23 04:25:43;;;;;;;1999.90;999.90;;;11.90;99.90;;;;;;5071729;28;20119;-76
2022/05/23 04:28:10;;;;;;;1999.90;999.90;;;11.90;99.90;;;;;;5071914;28;20051;-76
2022/05/23 04:30:35;;;;;;;1999.90;999.90;;;11.90;99.90;;;;;;5056077;28;20051;-76
2022/05/23 04:35:48;;;;;;;1999.90;999.90;;;12.00;99.90;;;;;;5064307;28;20036;-76
2022/05/23 04:38:14;;;;;;;1999.90;999.90;;;12.10;99.90;;;;;;5056657;28;20040;-77
2022/05/23 04:40:40;;;;;;;1999.90;999.90;;;12.20;99.90;;;;;;5072784;28;20067;-76
2022/05/23 04:43:06;;;;;;;1999.90;999.90;;;12.20;99.90;;;;;;5060703;28;20044;-76
2022/05/23 04:45:31;;;;;;;1999.90;999.90;;;12.30;99.90;;;;;;5068893;28;20043;-76
2022/05/23 04:50:41;;;;;;;1999.90;999.90;;;12.50;99.90;;;;;;5072269;28;20569;-76
2022/05/23 04:53:07;;;;;;;1999.90;999.90;;;12.60;99.90;;;;;;5054890;28;20044;-76
2022/05/23 04:55:37;;;;;;;1999.90;999.90;;;12.70;99.90;;;;;;5056249;28;20048;-77
2022/05/23 04:58:03;;;;;;;1999.90;999.90;;;12.80;99.90;;;;;;5054654;28;20056;-76
2022/05/23 05:00:29;;;;;;;1999.90;999.90;;;13.00;99.90;;;;;;5051033;28;20390;-76
2022/05/23 05:02:59;;;;;;;1999.90;999.90;;;13.10;99.90;;;;;;5062077;28;20038;-77
2022/05/23 05:05:28;;;;;;;1999.90;999.90;;;13.20;99.90;;;;;;5081847;28;20076;-77
2022/05/23 05:07:55;;;;;;;1999.90;999.90;;;13.40;99.90;;;;;;5072725;28;20517;-77
2022/05/23 05:10:23;;;;;;;1999.90;999.90;;;13.50;99.90;;;;;;5072080;28;20050;-78
2022/05/23 05:12:50;;;;;;;1999.90;999.90;;;13.60;99.90;;;;;;5055769;28;20039;-76
2022/05/23 05:15:16;;;;;;;1999.90;999.90;;;13.80;99.90;;;;;;5054216;28;20041;-77
2022/05/23 05:17:41;;;;;;;1999.90;999.90;;;13.90;99.90;;;;;;5072710;28;20043;-77
2022/05/23 05:20:11;;;;;;;1999.90;999.90;;;14.00;99.90;;;;;;5051872;28;20067;-77
2022/05/23 05:22:36;;;;;;;1999.90;999.90;;;14.10;99.90;;;;;;5054362;28;20599;-76
2022/05/23 05:25:04;;;;;;;1999.90;999.90;;;14.10;99.90;;;;;;5070217;28;20119;-77
2022/05/23 05:27:30;;;;;;;1999.90;999.90;;;14.20;99.90;;;;;;5062087;28;20569;-77
2022/05/23 05:29:57;;;;;;;1999.90;999.90;;;14.30;99.90;;;;;;5071172;28;20119;-77
2022/05/23 05:32:42;;;;;;;1999.90;999.90;;;14.30;99.90;;;;;;5053806;28;20334;-78
2022/05/23 05:35:17;;;;;;;1999.90;999.90;;;14.40;99.90;;;;;;5055002;28;20123;-77
2022/05/23 05:37:53;;;;;;;1999.90;999.90;;;14.50;99.90;;;;;;5050578;28;20087;-77
2022/05/23 05:40:22;;;;;;;1999.90;999.90;;;14.50;99.90;;;;;;5048472;28;20370;-78
2022/05/23 05:42:54;;;;;;;1999.90;999.90;;;14.90;99.90;;;;;;5055016;28;20036;-77
2022/05/23 05:45:37;;;;;;;1999.90;999.90;;;15.30;99.90;;;;;;5053915;28;20081;-77
2022/05/23 05:48:03;;;;;;;1999.90;999.90;;;15.40;99.90;;;;;;5069479;28;20123;-78
2022/05/23 05:50:33;;;;;;;1999.90;999.90;;;15.50;99.90;;;;;;5044465;28;20045;-78
2022/05/23 05:53:02;;;;;;;1999.90;999.90;;;15.60;99.90;;;;;;5045489;28;20071;-77
2022/05/23 05:55:27;;;;;;;1999.90;999.90;;;15.80;99.90;;;;;;5058661;28;20044;-77
2022/05/23 05:57:53;;;;;;;1999.90;999.90;;;16.00;99.90;;;;;;5066928;28;20044;-77
2022/05/23 06:00:20;;;;;;;1999.90;999.90;;;16.20;99.90;;;;;;5055182;28;20042;-77
2022/05/23 06:02:45;;;;;;;1999.90;999.90;;;16.50;99.90;;;;;;5054102;28;20135;-78
2022/05/23 06:05:11;;;;;;;1999.90;999.90;;;16.50;99.90;;;;;;5060328;28;20148;-78
2022/05/23 06:13:05;;;;;;;1999.90;999.90;;;17.80;99.90;;;;;;5059183;28;20068;-78
2022/05/23 06:15:31;;;;;;;1999.90;999.90;;;18.20;99.90;;;;;;5070222;28;20082;-78
2022/05/23 06:17:57;;;;;;;1999.90;999.90;;;18.10;99.90;;;;;;5054543;28;20036;-77
2022/05/23 06:20:23;;;;;;;1999.90;999.90;;;18.40;99.90;;;;;;5070446;28;20549;-78
2022/05/23 06:22:50;;;;;;;1999.90;999.90;;;18.60;99.90;;;;;;5051428;28;20123;-78
2022/05/23 06:25:16;;;;;;;1999.90;999.90;;;18.90;99.90;;;;;;5051206;28;20485;-78
2022/05/23 06:27:43;;;;;;;1999.90;999.90;;;19.30;99.90;;;;;;5067642;28;20123;-77
2022/05/23 06:30:10;;;;;;;1999.90;999.90;;;19.90;99.90;;;;;;5067960;28;20040;-78
2022/05/23 06:32:36;;;;;;;1999.90;999.90;;;20.20;99.90;;;;;;5051328;28;20173;-77
2022/05/23 06:35:07;;;;;;;1999.90;999.90;;;19.90;99.90;;;;;;5051563;28;20082;-77
2022/05/23 06:37:42;;;;;;;1999.90;999.90;;;19.60;99.90;;;;;;5049943;28;20047;-78
2022/05/23 06:40:11;;;;;;;1999.90;999.90;;;19.20;99.90;;;;;;5051155;28;20093;-77
2022/05/23 06:42:37;;;;;;;1999.90;999.90;;;18.90;99.90;;;;;;5034583;28;20090;-78
2022/05/23 06:45:04;;;;;;;1999.90;999.90;;;18.70;99.90;;;;;;5051963;28;20095;-77
2022/05/23 06:47:30;;;;;;;1999.90;999.90;;;18.70;99.90;;;;;;5050780;28;20406;-78
2022/05/23 06:49:57;;;;;;;1999.90;999.90;;;19.00;99.90;;;;;;5067395;28;20039;-78
2022/05/23 06:52:23;;;;;;;1999.90;999.90;;;19.20;99.90;;;;;;5067858;28;20036;-77
2022/05/23 06:54:49;;;;;;;1999.90;999.90;;;19.40;99.90;;;;;;5067504;28;20067;-78
2022/05/23 06:57:15;;;;;;;1999.90;999.90;;;19.40;99.90;;;;;;5035010;28;20037;-77
2022/05/23 06:59:41;;;;;;;1999.90;999.90;;;19.10;99.90;;;;;;5067869;28;20146;-77
2022/05/23 07:02:09;;;;;;;1999.90;999.90;;;18.80;99.90;;;;;;5057692;28;20044;-77
2022/05/23 07:12:48;;;;;;;1999.90;999.90;;;18.90;99.90;;;;;;5067518;28;20125;-78
2022/05/23 07:15:13;;;;;;;1999.90;999.90;;;19.20;99.90;;;;;;5050282;28;20448;-78
2022/05/23 07:17:39;;;;;;;1999.90;999.90;;;19.40;99.90;;;;;;5051832;28;20060;-78
2022/05/23 07:20:05;;;;;;;1999.90;999.90;;;19.60;99.90;;;;;;5068934;28;20035;-77
2022/05/23 07:22:32;;;;;;;1999.90;999.90;;;20.00;99.90;;;;;;5064975;28;20032;-77
2022/05/23 07:24:58;;;;;;;1999.90;999.90;;;20.40;99.90;;;;;;5070268;28;20052;-78
2022/05/23 07:27:28;;;;;;;1999.90;999.90;;;20.70;99.90;;;;;;5073772;28;20044;-78
2022/05/23 07:29:55;;;;;;;1999.90;999.90;;;20.90;99.90;;;;;;5070768;28;20032;-78
2022/05/23 07:32:20;;;;;;;1999.90;999.90;;;20.90;99.10;;;;;;5074210;28;20047;-78
2022/05/23 07:34:46;;;;;;;1999.90;999.90;;;20.70;99.90;;;;;;5057797;28;20047;-77
2022/05/23 07:37:12;;;;;;;1999.90;999.90;;;20.60;99.90;;;;;;5058884;28;20044;-77
2022/05/23 07:39:39;;;;;;;1999.90;999.90;;;20.70;99.90;;;;;;5082232;28;20035;-78
2022/05/23 07:42:06;;;;;;;1999.90;999.90;;;20.80;99.90;;;;;;5057801;28;20061;-78
2022/05/23 07:44:33;;;;;;;1999.90;999.90;;;20.70;99.90;;;;;;5053872;28;20037;-78
2022/05/23 07:46:59;;;;;;;1999.90;999.90;;;20.60;99.90;;;;;;5071355;28;20070;-79
2022/05/23 07:49:24;;;;;;;1999.90;999.90;;;20.70;99.90;;;;;;5053459;28;20048;-78
2022/05/23 07:51:50;;;;;;;1999.90;999.90;;;20.70;99.90;;;;;;5046578;28;20079;-78
2022/05/23 08:02:28;;;;;;;1999.90;999.90;;;20.30;99.90;;;;;;5073678;28;20048;-77
2022/05/23 08:04:55;;;;;;;1999.90;999.90;;;20.40;99.90;;;;;;5057778;28;20541;-77
2022/05/23 08:07:21;;;;;;;1999.90;999.90;;;20.50;99.90;;;;;;5073202;28;20059;-79
2022/05/23 08:09:47;;;;;;;1999.90;999.90;;;20.50;99.90;;;;;;5073476;28;20040;-78
2022/05/23 08:12:14;;;;;;;1999.90;999.90;;;20.40;99.90;;;;;;5074661;28;20056;-79
2022/05/23 08:14:40;;;;;;;1999.90;999.90;;;20.40;99.90;;;;;;5047401;28;20085;-78
2022/05/23 08:17:06;;;;;;;1999.90;999.90;;;20.30;99.90;;;;;;5055146;28;20063;-78
2022/05/23 08:19:32;;;;;;;1999.90;999.90;;;20.40;99.90;;;;;;5057273;28;20036;-79
2022/05/23 08:21:59;;;;;;;1999.90;999.90;;;20.60;99.90;;;;;;5053780;28;20466;-78
2022/05/23 08:24:25;;;;;;;1999.90;999.90;;;21.00;99.90;;;;;;5037329;28;20472;-77
2022/05/23 08:26:51;;;;;;;1999.90;999.90;;;21.40;99.90;;;;;;5046633;28;20047;-78
2022/05/23 08:29:16;;;;;;;1999.90;999.90;;;21.80;99.90;;;;;;5074325;28;20497;-77
2022/05/23 08:31:42;;;;;;;1999.90;999.90;;;22.20;99.90;;;;;;5056906;28;20036;-79
2022/05/23 08:34:08;;;;;;;1999.90;999.90;;;22.70;99.90;;;;;;5048494;28;20071;-79
2022/05/23 08:36:34;;;;;;;1999.90;999.90;;;23.00;99.90;;;;;;5060512;28;20505;-79
2022/05/23 08:39:00;;;;;;;1999.90;999.90;;;23.10;99.40;;;;;;5073184;28;20104;-78
2022/05/23 08:41:33;;;;;;;1999.90;999.90;;;23.10;99.80;;;;;;5073585;28;20055;-79
2022/05/23 08:44:18;;;;;;;1999.90;999.90;;;22.90;98.20;;;;;;5056055;28;20040;-79
2022/05/23 08:46:59;;;;;;;1999.90;999.90;;;22.90;99.40;;;;;;5053365;28;20068;-79
2022/05/23 08:49:37;;;;;;;1999.90;999.90;;;22.70;99.30;;;;;;5053087;28;20044;-78
2022/05/23 08:52:15;;;;;;;1999.90;999.90;;;22.50;99.90;;;;;;5072366;28;20050;-79
2022/05/23 08:54:45;;;;;;;1999.90;999.90;;;22.50;99.90;;;;;;5056763;28;20044;-79
2022/05/23 08:57:22;;;;;;;1999.90;999.90;;;22.80;99.90;;;;;;5056990;28;20065;-80
2022/05/23 08:59:54;;;;;;;1999.90;999.90;;;23.30;99.90;;;;;;5073917;28;20048;-78
2022/05/23 09:02:39;;;;;;;1999.90;999.90;;;24.10;99.80;;;;;;5051130;28;20497;-79
2022/05/23 09:05:11;;;;;;;1999.90;999.90;;;24.70;97.90;;;;;;5055801;28;20619;-80
2022/05/23 09:07:42;;;;;;;;;;;25.30;99.90;;;;;;5057439;28;20048;-79
2022/05/23 09:10:19;;;;;;;1999.90;999.90;;;25.60;98.80;;;;;;5054439;28;19965;-79
2022/05/23 09:12:45;;;;;;;1999.90;999.90;;;25.70;98.40;;;;;;5036501;28;20532;-79
2022/05/23 09:15:11;;;;;;;1999.90;999.90;;;25.90;95.70;;;;;;5053165;28;20037;-79
2022/05/23 09:17:43;;;;;;;1999.90;999.90;;;26.30;96.80;;;;;;5036432;28;20040;-80
2022/05/23 09:20:16;;;;;;;1999.90;999.90;;;26.40;95.50;;;;;;5058658;28;20044;-79
2022/05/23 09:22:47;;;;;;;;;;;26.40;94.40;;;;;;5073263;28;20040;-78
2022/05/23 09:25:16;;;;;;;1999.90;999.90;;;26.50;94.90;;;;;;5056372;28;19943;-79
2022/05/23 09:28:11;;;;;;;1999.90;999.90;;;26.70;93.60;;;;;;5051174;28;20107;-78
2022/05/23 09:30:39;;;;;;;1999.90;999.90;;;26.90;91.40;;;;;;5036312;28;20391;-79
2022/05/23 09:33:15;;;;;;;1999.90;999.90;;;27.10;93.20;;;;;;5036469;28;20044;-78
2022/05/23 09:36:12;;;;;;;1999.90;999.90;;;27.10;90.60;;;;;;5063911;28;20040;-79
2022/05/23 09:38:58;;;;;;;1999.90;999.90;;;26.70;89.20;;;;;;5072839;28;20050;-79
2022/05/23 09:47:44;;;;;;;1999.90;999.90;;;26.20;89.40;;;;;;5067573;28;20039;-79
2022/05/23 09:49:46;;;;;;;1999.90;999.90;;;25.40;90.90;;;;;;5057814;28;20048;-80
2022/05/23 09:52:15;;;;;;;1999.90;999.90;;;25.20;90.60;;;;;;5063711;28;20520;-78
2022/05/23 09:55:00;;;;;;;1999.90;999.90;;;25.10;91.70;;;;;;5048866;28;20403;-79
2022/05/23 09:57:34;;;;;;;1999.90;999.90;;;24.90;91.80;;;;;;5048698;28;20060;-78
2022/05/23 10:00:01;;;;;;;1999.90;999.90;;;24.80;91.30;;;;;;5051923;28;20047;-79
2022/05/23 10:02:32;;;;;;;1999.90;999.90;;;24.60;91.60;;;;;;5052273;28;20048;-78
2022/05/23 10:04:58;;;;;;;1999.90;999.90;;;24.40;91.00;;;;;;5054504;28;20075;-79
2022/05/23 10:07:37;;;;;;;1999.90;999.90;;;24.30;91.90;;;;;;5055612;28;20079;-78
2022/05/23 10:10:25;;;;;;;1999.90;999.90;;;24.30;91.60;;;;;;5050865;28;20047;-79
2022/05/23 10:13:31;;;;;;;1999.90;999.90;;;24.50;91.80;;;;;;5034657;28;20032;-79
2022/05/23 10:16:10;;;;;;;1999.90;999.90;;;24.80;91.90;;;;;;5051805;28;20047;-79
2022/05/23 10:19:00;;;;;;;1999.90;999.90;;;25.00;91.10;;;;;;5051583;28;20040;-79
2022/05/23 10:21:34;;;;;;;1999.90;999.90;;;25.10;91.60;;;;;;5051972;28;20066;-79
2022/05/23 10:24:20;;;;;;;1999.90;999.90;;;25.40;91.90;;;;;;5061863;28;20635;-79
2022/05/23 10:27:00;;;;;;;1999.90;999.90;;;25.70;91.50;;;;;;5048335;28;20045;-80
2022/05/23 10:29:52;;;;;;;1999.90;999.90;;;26.20;92.10;;;;;;5031847;28;20048;-78
2022/05/23 10:32:50;;;;;;;1999.90;999.90;;;26.80;91.10;;;;;;5047710;28;20048;-79
2022/05/23 10:35:22;;;;;;;1999.90;999.90;;;27.30;87.30;;;;;;5064639;28;20127;-78
2022/05/23 10:37:50;;;;;;;1999.90;999.90;;;27.60;83.10;;;;;;5067917;28;20044;-79
2022/05/23 10:43:20;;;;;;;1999.90;999.90;;;27.90;80.00;;;;;;5048084;28;20052;-79
2022/05/23 10:45:55;;;;;;;1999.90;999.90;;;27.80;77.80;;;;;;5031366;28;20052;-79
2022/05/23 10:48:24;;;;;;;1999.90;999.90;;;27.70;79.30;;;;;;5038440;28;20036;-78
2022/05/23 10:51:04;;;;;;;1999.90;999.90;;;27.80;78.80;;;;;;5066996;28;20055;-78
2022/05/23 10:53:48;;;;;;;1999.90;999.90;;;27.90;77.00;;;;;;5058598;28;20097;-79
2022/05/23 10:56:51;;;;;;;1999.90;999.90;;;27.80;77.00;;;;;;5029768;28;20041;-79
2022/05/23 10:59:31;;;;;;;1999.90;999.90;;;27.50;71.90;;;;;;5057382;28;20049;-79
2022/05/23 11:01:56;;;;;;;1999.90;999.90;;;27.00;71.90;;;;;;5068358;28;20047;-79
2022/05/23 11:04:43;;;;;;;1999.90;999.90;;;26.90;75.90;;;;;;5039989;28;20044;-78
2022/05/23 11:07:47;;;;;;;1999.90;999.90;;;27.20;77.30;;;;;;5032409;28;20041;-79
2022/05/23 11:10:29;;;;;;;1999.90;999.90;;;27.40;73.10;;;;;;5039906;28;20498;-78
2022/05/23 11:13:14;;;;;;;1999.90;999.90;;;27.50;72.40;;;;;;5030051;28;20048;-78
2022/05/23 11:15:49;;;;;;;1999.90;999.90;;;27.70;74.10;;;;;;5043449;28;20045;-78
2022/05/23 11:18:34;;;;;;;1999.90;999.90;;;27.70;67.90;;;;;;5056604;28;20128;-78
2022/05/23 11:21:07;;;;;;;1999.90;999.90;;;27.70;67.90;;;;;;5046497;28;20406;-78
2022/05/23 11:23:45;;;;;;;1999.90;999.90;;;27.70;66.40;;;;;;5047024;28;20056;-79
2022/05/23 11:26:24;;;;;;;1999.90;999.90;;;27.60;69.10;;;;;;5053926;28;20044;-78
2022/05/23 11:34:30;;;;;;;1999.90;999.90;;;27.50;69.40;;;;;;5063773;28;20053;-78
2022/05/23 11:39:49;;;;;;;1999.90;999.90;;;27.60;69.60;;;;;;5061556;28;20103;-78
2022/05/23 11:42:42;;;;;;;1999.90;999.90;;;27.70;69.20;;;;;;5047609;28;20409;-78
2022/05/23 11:47:55;;;;;;;1999.90;999.90;;;27.60;69.40;;;;;;5065011;28;20037;-78
2022/05/23 11:50:30;;;;;;;1999.90;999.90;;;27.50;67.00;;;;;;5062448;28;20040;-79
2022/05/23 11:53:08;;;;;;;1999.90;999.90;;;27.30;68.50;;;;;;5041148;28;20082;-78
2022/05/23 11:55:55;;;;;;;1999.90;999.90;;;27.30;69.20;;;;;;5039720;28;20580;-78
2022/05/23 11:58:44;;;;;;;1999.90;999.90;;;27.20;67.60;;;;;;5065651;28;20051;-78
2022/05/23 12:01:13;;;;;;;1999.90;999.90;;;27.10;69.90;;;;;;5050410;28;20059;-77
2022/05/23 12:03:51;;;;;;;1999.90;999.90;;;27.10;69.10;;;;;;5057922;28;20047;-78
2022/05/23 12:06:37;;;;;;;1999.90;999.90;;;27.20;69.60;;;;;;5051773;28;20049;-79
2022/05/23 12:09:16;;;;;;;1999.90;999.90;;;27.30;69.20;;;;;;5050077;28;20046;-78
2022/05/23 12:12:24;;;;;;;1999.90;999.90;;;27.10;69.20;;;;;;5048563;28;20529;-79
2022/05/23 12:14:51;;;;;;;1999.90;999.90;;;26.80;69.40;;;;;;5014233;28;20072;-79
2022/05/23 12:17:31;;;;;;;1999.90;999.90;;;26.60;69.20;;;;;;5050870;28;20120;-78
2022/05/23 12:19:59;;;;;;;1999.90;999.90;;;26.40;68.50;;;;;;5050535;28;20459;-78
2022/05/23 12:22:32;;;;;;;1999.90;999.90;;;26.10;66.90;;;;;;5033718;28;20044;-77
2022/05/23 12:25:07;;;;;;;1999.90;999.90;;;25.90;69.10;;;;;;5050216;28;20056;-79
2022/05/23 12:27:44;;;;;;;1999.90;999.90;;;25.70;67.80;;;;;;5054220;28;20140;-78
2022/05/23 12:30:23;;;;;;;1999.90;999.90;;;25.40;68.80;;;;;;5073584;28;20047;-78
2022/05/23 12:33:00;;;;;;;1999.90;999.90;;;25.30;69.30;;;;;;5063013;28;20405;-77
2022/05/23 12:35:54;;;;;;;1999.90;999.90;;;25.30;69.40;;;;;;5053200;28;20040;-78
2022/05/23 12:38:50;;;;;;;1999.90;999.90;;;25.10;68.30;;;;;;5046450;28;20147;-78
2022/05/23 12:41:34;;;;;;;1999.90;999.90;;;25.00;70.10;;;;;;5059597;28;20036;-78
2022/05/23 12:44:36;;;;;;;1999.90;999.90;;;24.90;68.20;;;;;;5056338;28;20092;-78
2022/05/23 12:47:19;;;;;;;1999.90;999.90;;;24.80;68.30;;;;;;5056805;28;20051;-78
2022/05/23 12:50:02;;;;;;;1999.90;999.90;;;24.70;69.80;;;;;;5063172;28;20467;-77
2022/05/23 12:52:59;;;;;;;1999.90;999.90;;;24.70;69.80;;;;;;5052944;28;20101;-78
2022/05/23 12:56:06;;;;;;;1999.90;999.90;;;24.80;71.60;;;;;;5036575;28;20044;-78
2022/05/23 12:59:02;;;;;;;1999.90;999.90;;;25.00;73.10;;;;;;5061748;28;20056;-78
2022/05/23 13:01:31;;;;;;;1999.90;999.90;;;25.00;71.50;;;;;;5051445;28;20090;-77
2022/05/23 13:04:29;;;;;;;1999.90;999.90;;;25.00;68.80;;;;;;5053158;28;20087;-77
2022/05/23 13:07:01;;;;;;;1999.90;999.90;;;24.80;68.00;;;;;;5052063;28;20072;-77
2022/05/23 13:09:44;;;;;;;1999.90;999.90;;;24.60;68.90;;;;;;5069456;28;20052;-78
2022/05/23 13:12:41;;;;;;;1999.90;999.90;;;24.40;68.30;;;;;;5051105;28;20066;-77
2022/05/23 13:15:07;;;;;;;1999.90;999.90;;;24.20;69.80;;;;;;5044781;28;20063;-77
2022/05/23 13:17:37;;;;;;;1999.90;999.90;;;24.00;70.00;;;;;;5050190;28;20732;-77
2022/05/23 13:23:09;;;;;;;1999.90;999.90;;;23.90;71.00;;;;;;5056445;28;20056;-77
2022/05/23 13:25:36;;;;;;;1999.90;999.90;;;23.80;70.40;;;;;;5051548;28;20044;-77